sensor_id;sensor_type;location;lat;lon;timestamp;pressure;altitude;pressure_sealevel;temperature;humidity
17785;BME280;9016;53.582;10.062;2023-07-20T00:00:15;101127.81;;;17.72;77.23
17785;BME280;9016;53.582;10.062;2023-07-20T00:02:44;101114.91;;;17.76;76.92
17785;BME280;9016;53.582;10.062;2023-07-20T00:05:12;101117.63;;;17.76;77.63
17785;BME280;9016;53.582;10.062;2023-07-20T00:07:40;101118.94;;;17.82;77.11
17785;BME280;9016;53.582;10.062;2023-07-20T00:10:09;101116.44;;;17.90;77.08
17785;BME280;9016;53.582;10.062;2023-07-20T00:12:37;101113.59;;;17.91;77.32
17785;BME280;9016;53.582;10.062;2023-07-20T00:15:06;101109.78;;;17.94;77.29
17785;BME280;9016;53.582;10.062;2023-07-20T00:17:34;101109.94;;;17.92;77.19
17785;BME280;9016;53.582;10.062;2023-07-20T00:20:04;101104.03;;;17.98;76.55
17785;BME280;9016;53.582;10.062;2023-07-20T00:22:35;101105.44;;;18.02;76.26
17785;BME280;9016;53.582;10.062;2023-07-20T00:25:04;101105.44;;;18.02;76.03
17785;BME280;9016;53.582;10.062;2023-07-20T00:27:34;101109.75;;;18.05;76.19
17785;BME280;9016;53.582;10.062;2023-07-20T00:30:02;101107.63;;;18.08;76.23
17785;BME280;9016;53.582;10.062;2023-07-20T00:32:30;101114.19;;;18.15;75.85
17785;BME280;9016;53.582;10.062;2023-07-20T00:34:58;101119.59;;;18.15;75.71
17785;BME280;9016;53.582;10.062;2023-07-20T00:37:25;101113.81;;;18.20;74.78
17785;BME280;9016;53.582;10.062;2023-07-20T00:39:53;101116.91;;;18.15;75.66
17785;BME280;9016;53.582;10.062;2023-07-20T00:42:21;101118.41;;;18.08;76.09
17785;BME280;9016;53.582;10.062;2023-07-20T00:44:51;101106.69;;;18.19;75.79
17785;BME280;9016;53.582;10.062;2023-07-20T00:47:18;101109.28;;;18.20;75.28
17785;BME280;9016;53.582;10.062;2023-07-20T00:49:46;101101.06;;;18.22;75.44
17785;BME280;9016;53.582;10.062;2023-07-20T00:52:14;101104.22;;;18.27;75.32
17785;BME280;9016;53.582;10.062;2023-07-20T00:54:43;101103.19;;;18.18;76.28
17785;BME280;9016;53.582;10.062;2023-07-20T00:57:14;101111.25;;;18.18;77.19
17785;BME280;9016;53.582;10.062;2023-07-20T00:59:42;101112.22;;;18.17;77.84
17785;BME280;9016;53.582;10.062;2023-07-20T01:02:12;101118.13;;;18.22;77.95
17785;BME280;9016;53.582;10.062;2023-07-20T01:04:40;101106.69;;;18.19;78.35
17785;BME280;9016;53.582;10.062;2023-07-20T01:07:12;101106.66;;;18.09;78.83
17785;BME280;9016;53.582;10.062;2023-07-20T01:09:44;101111.19;;;18.09;79.51
17785;BME280;9016;53.582;10.062;2023-07-20T01:12:22;101111.25;;;17.98;79.46
17785;BME280;9016;53.582;10.062;2023-07-20T01:14:54;101104.69;;;17.91;80.69
17785;BME280;9016;53.582;10.062;2023-07-20T01:17:24;101116.56;;;17.88;80.89
17785;BME280;9016;53.582;10.062;2023-07-20T01:19:52;101110.72;;;17.83;80.81
17785;BME280;9016;53.582;10.062;2023-07-20T01:22:39;101110.84;;;17.82;81.29
17785;BME280;9016;53.582;10.062;2023-07-20T01:25:34;101112.00;;;17.68;82.53
17785;BME280;9016;53.582;10.062;2023-07-20T01:28:45;101112.00;;;17.68;83.53
17785;BME280;9016;53.582;10.062;2023-07-20T01:31:21;101108.25;;;17.59;83.47
17785;BME280;9016;53.582;10.062;2023-07-20T01:33:54;101116.19;;;17.61;85.10
17785;BME280;9016;53.582;10.062;2023-07-20T01:36:23;101112.63;;;17.60;85.04
17785;BME280;9016;53.582;10.062;2023-07-20T01:38:52;101112.78;;;17.59;85.34
17785;BME280;9016;53.582;10.062;2023-07-20T01:41:21;101105.06;;;17.54;85.37
17785;BME280;9016;53.582;10.062;2023-07-20T01:43:49;101105.06;;;17.54;85.59
17785;BME280;9016;53.582;10.062;2023-07-20T01:46:17;101105.19;;;17.53;85.72
17785;BME280;9016;53.582;10.062;2023-07-20T01:48:47;101107.38;;;17.59;85.69
17785;BME280;9016;53.582;10.062;2023-07-20T01:51:15;101103.81;;;17.58;86.07
17785;BME280;9016;53.582;10.062;2023-07-20T01:53:44;101099.66;;;17.54;86.27
17785;BME280;9016;53.582;10.062;2023-07-20T01:56:12;101096.00;;;17.55;86.35
17785;BME280;9016;53.582;10.062;2023-07-20T01:58:40;101099.28;;;17.59;86.61
17785;BME280;9016;53.582;10.062;2023-07-20T02:01:08;101097.84;;;17.55;85.76
17785;BME280;9016;53.582;10.062;2023-07-20T02:03:36;101103.22;;;17.55;86.88
17785;BME280;9016;53.582;10.062;2023-07-20T02:06:06;101104.47;;;17.51;87.65
17785;BME280;9016;53.582;10.062;2023-07-20T02:08:34;101101.41;;;17.55;88.10
17785;BME280;9016;53.582;10.062;2023-07-20T02:11:02;101107.25;;;17.60;88.82
17785;BME280;9016;53.582;10.062;2023-07-20T02:13:31;101101.09;;;17.69;89.01
17785;BME280;9016;53.582;10.062;2023-07-20T02:15:59;101104.78;;;17.68;88.80
17785;BME280;9016;53.582;10.062;2023-07-20T02:18:27;101104.38;;;17.73;88.76
17785;BME280;9016;53.582;10.062;2023-07-20T02:20:55;101103.41;;;17.74;88.10
17785;BME280;9016;53.582;10.062;2023-07-20T02:23:24;101106.09;;;17.74;87.73
17785;BME280;9016;53.582;10.062;2023-07-20T02:25:52;101111.63;;;17.72;88.07
17785;BME280;9016;53.582;10.062;2023-07-20T02:28:20;101110.34;;;17.76;87.97
17785;BME280;9016;53.582;10.062;2023-07-20T02:30:48;101113.06;;;17.76;88.93
17785;BME280;9016;53.582;10.062;2023-07-20T02:33:16;101103.28;;;17.75;88.82
17785;BME280;9016;53.582;10.062;2023-07-20T02:35:44;101109.75;;;17.73;88.71
17785;BME280;9016;53.582;10.062;2023-07-20T02:38:13;101109.00;;;17.82;88.68
17785;BME280;9016;53.582;10.062;2023-07-20T02:40:42;101113.28;;;17.85;88.53
17785;BME280;9016;53.582;10.062;2023-07-20T02:43:10;101116.97;;;17.84;88.13
17785;BME280;9016;53.582;10.062;2023-07-20T02:45:40;101123.72;;;17.78;88.82
17785;BME280;9016;53.582;10.062;2023-07-20T02:48:08;101128.25;;;17.77;89.42
17785;BME280;9016;53.582;10.062;2023-07-20T02:50:36;101120.31;;;17.76;88.55
17785;BME280;9016;53.582;10.062;2023-07-20T02:53:04;101118.44;;;17.76;89.46
17785;BME280;9016;53.582;10.062;2023-07-20T02:55:32;101115.78;;;17.65;88.22
17785;BME280;9016;53.582;10.062;2023-07-20T02:58:01;101113.63;;;17.59;88.61
17785;BME280;9016;53.582;10.062;2023-07-20T03:00:29;101106.97;;;17.63;89.04
17785;BME280;9016;53.582;10.062;2023-07-20T03:02:57;101118.63;;;17.64;89.33
17785;BME280;9016;53.582;10.062;2023-07-20T03:05:25;101119.34;;;17.66;90.36
17785;BME280;9016;53.582;10.062;2023-07-20T03:07:55;101120.22;;;17.66;89.96
17785;BME280;9016;53.582;10.062;2023-07-20T03:10:23;101111.53;;;17.63;90.06
17785;BME280;9016;53.582;10.062;2023-07-20T03:12:51;101112.28;;;17.65;89.78
17785;BME280;9016;53.582;10.062;2023-07-20T03:15:20;101127.44;;;17.66;89.23
17785;BME280;9016;53.582;10.062;2023-07-20T03:17:48;101121.91;;;17.67;88.75
17785;BME280;9016;53.582;10.062;2023-07-20T03:20:16;101125.38;;;17.58;88.75
17785;BME280;9016;53.582;10.062;2023-07-20T03:22:44;101127.94;;;17.60;88.87
17785;BME280;9016;53.582;10.062;2023-07-20T03:25:14;101124.31;;;17.50;88.80
17785;BME280;9016;53.582;10.062;2023-07-20T03:27:46;101126.28;;;17.48;88.89
17785;BME280;9016;53.582;10.062;2023-07-20T03:30:16;101128.84;;;17.49;89.45
17785;BME280;9016;53.582;10.062;2023-07-20T03:32:45;101133.13;;;17.52;88.64
17785;BME280;9016;53.582;10.062;2023-07-20T03:35:14;101126.75;;;17.42;88.82
17785;BME280;9016;53.582;10.062;2023-07-20T03:37:42;101129.56;;;17.40;88.80
17785;BME280;9016;53.582;10.062;2023-07-20T03:40:10;101134.34;;;17.37;88.61
17785;BME280;9016;53.582;10.062;2023-07-20T03:42:39;101127.25;;;17.36;89.46
17785;BME280;9016;53.582;10.062;2023-07-20T03:45:07;101123.81;;;17.45;88.75
17785;BME280;9016;53.582;10.062;2023-07-20T03:47:35;101132.63;;;17.36;88.50
17785;BME280;9016;53.582;10.062;2023-07-20T03:50:07;101138.88;;;17.36;88.14
17785;BME280;9016;53.582;10.062;2023-07-20T03:52:36;101135.22;;;17.37;88.36
17785;BME280;9016;53.582;10.062;2023-07-20T03:55:05;101135.97;;;17.28;87.90
17785;BME280;9016;53.582;10.062;2023-07-20T03:57:33;101131.78;;;17.35;88.57
17785;BME280;9016;53.582;10.062;2023-07-20T04:00:05;101130.94;;;17.35;89.04
17785;BME280;9016;53.582;10.062;2023-07-20T04:02:34;101133.88;;;17.43;88.52
17785;BME280;9016;53.582;10.062;2023-07-20T04:05:03;101135.97;;;17.50;88.00
17785;BME280;9016;53.582;10.062;2023-07-20T04:07:32;101134.81;;;17.53;87.85
17785;BME280;9016;53.582;10.062;2023-07-20T04:10:00;101139.97;;;17.56;87.77
17785;BME280;9016;53.582;10.062;2023-07-20T04:12:28;101142.56;;;17.57;87.59
17785;BME280;9016;53.582;10.062;2023-07-20T04:14:58;101142.41;;;17.59;87.90
17785;BME280;9016;53.582;10.062;2023-07-20T04:17:27;101141.81;;;17.55;88.58
17785;BME280;9016;53.582;10.062;2023-07-20T04:19:59;101139.97;;;17.56;88.46
17785;BME280;9016;53.582;10.062;2023-07-20T04:22:28;101143.38;;;17.58;88.39
17785;BME280;9016;53.582;10.062;2023-07-20T04:24:57;101143.28;;;17.59;88.29
17785;BME280;9016;53.582;10.062;2023-07-20T04:27:25;101151.38;;;17.59;88.37
17785;BME280;9016;53.582;10.062;2023-07-20T04:29:53;101157.09;;;17.66;88.24
17785;BME280;9016;53.582;10.062;2023-07-20T04:32:21;101157.44;;;17.72;88.21
17785;BME280;9016;53.582;10.062;2023-07-20T04:34:50;101158.78;;;17.78;86.69
17785;BME280;9016;53.582;10.062;2023-07-20T04:37:18;101152.66;;;17.76;87.06
17785;BME280;9016;53.582;10.062;2023-07-20T04:39:46;101151.88;;;17.85;86.58
17785;BME280;9016;53.582;10.062;2023-07-20T04:42:18;101155.78;;;17.92;87.52
17785;BME280;9016;53.582;10.062;2023-07-20T04:44:56;101152.28;;;18.01;86.55
17785;BME280;9016;53.582;10.062;2023-07-20T04:47:24;101150.19;;;18.05;86.42
17785;BME280;9016;53.582;10.062;2023-07-20T04:49:52;101157.09;;;17.98;85.50
17785;BME280;9016;53.582;10.062;2023-07-20T04:52:20;101152.22;;;17.92;85.18
17785;BME280;9016;53.582;10.062;2023-07-20T04:55:03;101153.06;;;17.92;85.85
17785;BME280;9016;53.582;10.062;2023-07-20T04:57:33;101148.66;;;17.91;86.34
17785;BME280;9016;53.582;10.062;2023-07-20T05:00:01;101145.50;;;17.86;85.60
17785;BME280;9016;53.582;10.062;2023-07-20T05:02:30;101150.03;;;17.86;86.19
17785;BME280;9016;53.582;10.062;2023-07-20T05:04:58;101156.78;;;17.80;86.12
17785;BME280;9016;53.582;10.062;2023-07-20T05:07:26;101160.97;;;17.73;86.67
17785;BME280;9016;53.582;10.062;2023-07-20T05:09:54;101155.09;;;17.79;87.17
17785;BME280;9016;53.582;10.062;2023-07-20T05:12:22;101150.69;;;17.78;87.77
17785;BME280;9016;53.582;10.062;2023-07-20T05:14:52;101149.09;;;17.75;87.66
17785;BME280;9016;53.582;10.062;2023-07-20T05:17:23;101142.97;;;17.73;87.46
17785;BME280;9016;53.582;10.062;2023-07-20T05:19:51;101152.13;;;17.82;86.91
17785;BME280;9016;53.582;10.062;2023-07-20T05:22:22;101146.81;;;17.92;87.03
17785;BME280;9016;53.582;10.062;2023-07-20T05:24:51;101153.94;;;17.93;86.44
17785;BME280;9016;53.582;10.062;2023-07-20T05:27:19;101153.34;;;17.89;86.18
17785;BME280;9016;53.582;10.062;2023-07-20T05:29:47;101152.63;;;17.87;86.37
17785;BME280;9016;53.582;10.062;2023-07-20T05:32:17;101153.34;;;17.89;86.48
17785;BME280;9016;53.582;10.062;2023-07-20T05:34:45;101153.66;;;17.96;86.29
17785;BME280;9016;53.582;10.062;2023-07-20T05:37:33;101149.31;;;18.04;86.87
17785;BME280;9016;53.582;10.062;2023-07-20T05:40:01;101158.94;;;17.97;85.75
17785;BME280;9016;53.582;10.062;2023-07-20T05:42:31;101158.00;;;17.87;86.33
17785;BME280;9016;53.582;10.062;2023-07-20T05:44:59;101156.22;;;17.97;86.63
17785;BME280;9016;53.582;10.062;2023-07-20T05:47:28;101151.19;;;18.04;85.96
17785;BME280;9016;53.582;10.062;2023-07-20T05:49:56;101149.28;;;18.15;85.44
17785;BME280;9016;53.582;10.062;2023-07-20T05:52:24;101162.09;;;18.23;84.95
17785;BME280;9016;53.582;10.062;2023-07-20T05:54:52;101150.72;;;18.19;84.46
17785;BME280;9016;53.582;10.062;2023-07-20T05:57:20;101155.97;;;18.21;83.10
17785;BME280;9016;53.582;10.062;2023-07-20T05:59:48;101152.91;;;18.25;82.76
17785;BME280;9016;53.582;10.062;2023-07-20T06:02:16;101153.88;;;18.24;83.06
17785;BME280;9016;53.582;10.062;2023-07-20T06:04:46;101157.91;;;18.30;82.46
17785;BME280;9016;53.582;10.062;2023-07-20T06:07:14;101166.19;;;18.38;82.44
17785;BME280;9016;53.582;10.062;2023-07-20T06:09:42;101157.94;;;18.50;81.52
17785;BME280;9016;53.582;10.062;2023-07-20T06:12:10;101171.69;;;18.47;80.13
17785;BME280;9016;53.582;10.062;2023-07-20T06:14:38;101159.38;;;18.54;79.24
17785;BME280;9016;53.582;10.062;2023-07-20T06:17:06;101160.41;;;18.63;78.77
17785;BME280;9016;53.582;10.062;2023-07-20T06:19:35;101159.41;;;18.85;78.10
17785;BME280;9016;53.582;10.062;2023-07-20T06:22:05;101161.75;;;18.99;77.41
17785;BME280;9016;53.582;10.062;2023-07-20T06:24:33;101167.59;;;19.04;76.24
17785;BME280;9016;53.582;10.062;2023-07-20T06:27:01;101171.81;;;19.27;75.49
17785;BME280;9016;53.582;10.062;2023-07-20T06:29:29;101165.78;;;19.44;73.99
17785;BME280;9016;53.582;10.062;2023-07-20T06:31:57;101170.31;;;19.43;74.11
17785;BME280;9016;53.582;10.062;2023-07-20T06:34:25;101177.28;;;19.36;73.74
17785;BME280;9016;53.582;10.062;2023-07-20T06:36:53;101180.31;;;19.52;74.08
17785;BME280;9016;53.582;10.062;2023-07-20T06:39:22;101172.78;;;20.70;71.35
17785;BME280;9016;53.582;10.062;2023-07-20T06:41:53;101173.09;;;22.82;64.13
17785;BME280;9016;53.582;10.062;2023-07-20T06:44:21;101159.75;;;23.80;59.92
17785;BME280;9016;53.582;10.062;2023-07-20T06:46:50;101169.91;;;23.20;58.26
17785;BME280;9016;53.582;10.062;2023-07-20T06:49:25;101173.63;;;23.19;57.74
17785;BME280;9016;53.582;10.062;2023-07-20T06:51:53;101165.09;;;24.37;56.84
17785;BME280;9016;53.582;10.062;2023-07-20T06:54:26;101159.63;;;25.40;51.17
17785;BME280;9016;53.582;10.062;2023-07-20T06:56:54;101167.47;;;26.65;47.62
17785;BME280;9016;53.582;10.062;2023-07-20T06:59:25;101157.66;;;25.88;47.52
17785;BME280;9016;53.582;10.062;2023-07-20T07:01:53;101169.88;;;24.43;49.97
17785;BME280;9016;53.582;10.062;2023-07-20T07:04:21;101165.94;;;24.46;50.89
17785;BME280;9016;53.582;10.062;2023-07-20T07:06:49;101158.25;;;26.06;47.93
17785;BME280;9016;53.582;10.062;2023-07-20T07:09:17;101156.50;;;27.02;44.00
17785;BME280;9016;53.582;10.062;2023-07-20T07:11:46;101163.09;;;28.01;42.49
17785;BME280;9016;53.582;10.062;2023-07-20T07:14:14;101159.03;;;27.03;44.13
17785;BME280;9016;53.582;10.062;2023-07-20T07:16:42;101157.72;;;25.49;45.76
17785;BME280;9016;53.582;10.062;2023-07-20T07:19:11;101161.13;;;24.96;45.98
17785;BME280;9016;53.582;10.062;2023-07-20T07:21:39;101161.03;;;26.20;45.01
17785;BME280;9016;53.582;10.062;2023-07-20T07:24:07;101163.75;;;25.28;45.89
17785;BME280;9016;53.582;10.062;2023-07-20T07:26:37;101172.44;;;26.24;43.99
17785;BME280;9016;53.582;10.062;2023-07-20T07:29:09;101166.41;;;27.82;39.29
17785;BME280;9016;53.582;10.062;2023-07-20T07:31:37;101156.72;;;29.26;37.67
17785;BME280;9016;53.582;10.062;2023-07-20T07:34:06;101153.94;;;30.34;35.10
17785;BME280;9016;53.582;10.062;2023-07-20T07:36:35;101150.44;;;29.86;34.53
17785;BME280;9016;53.582;10.062;2023-07-20T07:39:03;101164.75;;;28.02;38.09
17785;BME280;9016;53.582;10.062;2023-07-20T07:41:34;101166.00;;;26.39;40.23
17785;BME280;9016;53.582;10.062;2023-07-20T07:44:02;101167.78;;;24.94;44.06
17785;BME280;9016;53.582;10.062;2023-07-20T07:46:31;101185.63;;;23.84;48.42
17785;BME280;9016;53.582;10.062;2023-07-20T07:48:59;101185.50;;;22.84;51.92
17785;BME280;9016;53.582;10.062;2023-07-20T07:51:27;101190.16;;;22.31;53.16
17785;BME280;9016;53.582;10.062;2023-07-20T07:53:56;101196.44;;;21.96;53.77
17785;BME280;9016;53.582;10.062;2023-07-20T07:56:24;101190.59;;;23.13;53.79
17785;BME280;9016;53.582;10.062;2023-07-20T07:58:52;101182.75;;;25.83;47.82
17785;BME280;9016;53.582;10.062;2023-07-20T08:01:20;101185.50;;;28.11;42.92
17785;BME280;9016;53.582;10.062;2023-07-20T08:03:50;101185.72;;;29.35;39.02
17785;BME280;9016;53.582;10.062;2023-07-20T08:06:19;101175.31;;;30.51;37.16
17785;BME280;9016;53.582;10.062;2023-07-20T08:08:47;101177.44;;;30.56;35.34
17785;BME280;9016;53.582;10.062;2023-07-20T08:11:15;101186.94;;;28.98;37.47
17785;BME280;9016;53.582;10.062;2023-07-20T08:13:44;101184.69;;;27.02;40.76
17785;BME280;9016;53.582;10.062;2023-07-20T08:16:12;101186.59;;;25.27;43.81
17785;BME280;9016;53.582;10.062;2023-07-20T08:18:40;101180.84;;;27.26;40.10
17785;BME280;9016;53.582;10.062;2023-07-20T08:21:10;101180.16;;;28.67;36.95
17785;BME280;9016;53.582;10.062;2023-07-20T08:23:38;101176.97;;;30.26;35.69
17785;BME280;9016;53.582;10.062;2023-07-20T08:26:06;101178.28;;;30.50;34.60
17785;BME280;9016;53.582;10.062;2023-07-20T08:28:34;101169.53;;;31.18;34.76
17785;BME280;9016;53.582;10.062;2023-07-20T08:31:05;101180.06;;;30.03;34.57
17785;BME280;9016;53.582;10.062;2023-07-20T08:33:33;101170.75;;;29.44;34.02
17785;BME280;9016;53.582;10.062;2023-07-20T08:36:02;101181.56;;;29.52;34.06
17785;BME280;9016;53.582;10.062;2023-07-20T08:38:31;101183.34;;;27.71;37.52
17785;BME280;9016;53.582;10.062;2023-07-20T08:40:59;101192.41;;;29.60;35.08
17785;BME280;9016;53.582;10.062;2023-07-20T08:43:28;101193.09;;;30.94;32.49
17785;BME280;9016;53.582;10.062;2023-07-20T08:45:58;101191.06;;;32.04;32.19
17785;BME280;9016;53.582;10.062;2023-07-20T08:48:27;101189.06;;;31.10;31.15
17785;BME280;9016;53.582;10.062;2023-07-20T08:50:55;101189.19;;;28.88;34.16
17785;BME280;9016;53.582;10.062;2023-07-20T08:53:24;101198.09;;;28.06;35.77
17785;BME280;9016;53.582;10.062;2023-07-20T08:55:53;101207.03;;;26.91;38.47
17785;BME280;9016;53.582;10.062;2023-07-20T08:58:23;101211.84;;;25.68;42.28
17785;BME280;9016;53.582;10.062;2023-07-20T09:00:53;101219.59;;;24.94;44.40
17785;BME280;9016;53.582;10.062;2023-07-20T09:03:22;101217.66;;;26.72;43.65
17785;BME280;9016;53.582;10.062;2023-07-20T09:05:50;101204.75;;;28.81;38.39
17785;BME280;9016;53.582;10.062;2023-07-20T09:08:19;101205.06;;;30.15;35.94
17785;BME280;9016;53.582;10.062;2023-07-20T09:10:46;101199.84;;;31.38;34.71
17785;BME280;9016;53.582;10.062;2023-07-20T09:13:16;101206.88;;;31.78;31.85
17785;BME280;9016;53.582;10.062;2023-07-20T09:15:53;101200.91;;;31.87;31.56
17785;BME280;9016;53.582;10.062;2023-07-20T09:18:25;101197.66;;;32.03;32.88
17785;BME280;9016;53.582;10.062;2023-07-20T09:20:53;101193.22;;;32.65;31.63
17785;BME280;9016;53.582;10.062;2023-07-20T09:23:29;101198.72;;;31.52;31.41
17785;BME280;9016;53.582;10.062;2023-07-20T09:25:58;101193.13;;;29.75;34.70
17785;BME280;9016;53.582;10.062;2023-07-20T09:28:28;101193.91;;;28.52;36.57
17785;BME280;9016;53.582;10.062;2023-07-20T09:30:56;101209.44;;;27.09;39.32
17785;BME280;9016;53.582;10.062;2023-07-20T09:33:25;101225.09;;;25.79;42.28
17785;BME280;9016;53.582;10.062;2023-07-20T09:35:54;101236.44;;;24.25;48.24
17785;BME280;9016;53.582;10.062;2023-07-20T09:38:49;101235.53;;;23.25;50.17
17785;BME280;9016;53.582;10.062;2023-07-20T09:41:21;101239.03;;;23.17;50.41
17785;BME280;9016;53.582;10.062;2023-07-20T09:43:54;101241.53;;;24.12;49.31
17785;BME280;9016;53.582;10.062;2023-07-20T09:46:22;101238.38;;;23.91;49.19
17785;BME280;9016;53.582;10.062;2023-07-20T09:48:53;101227.59;;;24.39;48.87
17785;BME280;9016;53.582;10.062;2023-07-20T09:51:24;101232.22;;;24.71;47.23
17785;BME280;9016;53.582;10.062;2023-07-20T09:53:52;101226.41;;;25.61;45.46
17785;BME280;9016;53.582;10.062;2023-07-20T09:56:22;101213.84;;;26.35;44.57
17785;BME280;9016;53.582;10.062;2023-07-20T09:58:51;101213.91;;;26.27;43.32
17785;BME280;9016;53.582;10.062;2023-07-20T10:01:21;101214.66;;;25.91;42.97
17785;BME280;9016;53.582;10.062;2023-07-20T10:03:54;101212.50;;;25.31;43.99
17785;BME280;9016;53.582;10.062;2023-07-20T10:06:24;101212.44;;;25.01;43.86
17785;BME280;9016;53.582;10.062;2023-07-20T10:08:56;101222.09;;;25.19;45.34
17785;BME280;9016;53.582;10.062;2023-07-20T10:11:30;101208.28;;;25.13;44.18
17785;BME280;9016;53.582;10.062;2023-07-20T10:14:00;101199.22;;;25.28;45.22
17785;BME280;9016;53.582;10.062;2023-07-20T10:16:35;101207.03;;;25.31;43.88
17785;BME280;9016;53.582;10.062;2023-07-20T10:19:07;101204.69;;;25.28;44.29
17785;BME280;9016;53.582;10.062;2023-07-20T10:21:41;101203.25;;;25.48;44.62
17785;BME280;9016;53.582;10.062;2023-07-20T10:24:11;101202.03;;;25.04;44.47
17785;BME280;9016;53.582;10.062;2023-07-20T10:26:39;101189.75;;;25.55;44.13
17785;BME280;9016;53.582;10.062;2023-07-20T10:29:08;101187.97;;;25.39;42.85
17785;BME280;9016;53.582;10.062;2023-07-20T10:31:38;101199.16;;;24.82;43.34
17785;BME280;9016;53.582;10.062;2023-07-20T10:34:06;101192.22;;;25.34;42.63
17785;BME280;9016;53.582;10.062;2023-07-20T10:36:43;101200.38;;;25.34;42.14
17785;BME280;9016;53.582;10.062;2023-07-20T10:39:22;101212.44;;;24.52;47.95
17785;BME280;9016;53.582;10.062;2023-07-20T10:41:59;101214.75;;;23.99;48.59
17785;BME280;9016;53.582;10.062;2023-07-20T10:44:28;101211.63;;;23.78;49.57
17785;BME280;9016;53.582;10.062;2023-07-20T10:47:02;101205.69;;;23.83;50.08
17785;BME280;9016;53.582;10.062;2023-07-20T10:49:33;101199.84;;;24.19;47.07
17785;BME280;9016;53.582;10.062;2023-07-20T10:52:04;101214.84;;;24.47;45.32
17785;BME280;9016;53.582;10.062;2023-07-20T10:54:34;101203.09;;;24.55;44.58
17785;BME280;9016;53.582;10.062;2023-07-20T10:57:30;101201.38;;;24.38;44.63
17785;BME280;9016;53.582;10.062;2023-07-20T11:00:09;101210.28;;;23.82;48.00
17785;BME280;9016;53.582;10.062;2023-07-20T11:02:46;101211.81;;;23.35;53.09
17785;BME280;9016;53.582;10.062;2023-07-20T11:05:36;101208.97;;;23.19;51.19
17785;BME280;9016;53.582;10.062;2023-07-20T11:08:08;101211.25;;;22.98;52.13
17785;BME280;9016;53.582;10.062;2023-07-20T11:10:37;101203.34;;;23.12;51.05
17785;BME280;9016;53.582;10.062;2023-07-20T11:13:22;101206.72;;;23.90;50.96
17785;BME280;9016;53.582;10.062;2023-07-20T11:16:02;101219.56;;;23.64;49.26
17785;BME280;9016;53.582;10.062;2023-07-20T11:18:34;101229.78;;;23.02;51.26
17785;BME280;9016;53.582;10.062;2023-07-20T11:21:08;101233.94;;;22.28;53.04
17785;BME280;9016;53.582;10.062;2023-07-20T11:23:38;101233.53;;;22.05;52.09
17785;BME280;9016;53.582;10.062;2023-07-20T11:26:09;101238.31;;;21.94;51.41
17785;BME280;9016;53.582;10.062;2023-07-20T11:28:39;101242.84;;;22.38;51.74
17785;BME280;9016;53.582;10.062;2023-07-20T11:31:07;101230.72;;;22.68;50.37
17785;BME280;9016;53.582;10.062;2023-07-20T11:33:37;101229.47;;;23.05;49.89
17785;BME280;9016;53.582;10.062;2023-07-20T11:36:06;101218.59;;;23.31;48.72
17785;BME280;9016;53.582;10.062;2023-07-20T11:38:40;101216.88;;;23.30;46.81
17785;BME280;9016;53.582;10.062;2023-07-20T11:41:09;101217.00;;;23.28;46.70
17785;BME280;9016;53.582;10.062;2023-07-20T11:43:38;101216.69;;;22.98;45.95
17785;BME280;9016;53.582;10.062;2023-07-20T11:46:06;101223.28;;;22.70;46.36
17785;BME280;9016;53.582;10.062;2023-07-20T11:48:36;101220.81;;;22.58;47.02
17785;BME280;9016;53.582;10.062;2023-07-20T11:51:03;101228.44;;;22.81;47.00
17785;BME280;9016;53.582;10.062;2023-07-20T11:53:32;101227.44;;;22.82;47.04
17785;BME280;9016;53.582;10.062;2023-07-20T11:56:00;101226.78;;;22.88;46.79
17785;BME280;9016;53.582;10.062;2023-07-20T11:58:28;101219.81;;;23.11;47.61
17785;BME280;9016;53.582;10.062;2023-07-20T12:00:57;101222.94;;;23.49;46.99
17785;BME280;9016;53.582;10.062;2023-07-20T12:03:25;101213.25;;;23.55;46.60
17785;BME280;9016;53.582;10.062;2023-07-20T12:05:54;101222.50;;;23.78;46.78
17785;BME280;9016;53.582;10.062;2023-07-20T12:08:27;101215.72;;;23.82;46.51
17785;BME280;9016;53.582;10.062;2023-07-20T12:10:56;101221.03;;;23.92;46.81
17785;BME280;9016;53.582;10.062;2023-07-20T12:13:24;101223.91;;;23.82;47.86
17785;BME280;9016;53.582;10.062;2023-07-20T12:16:08;101226.19;;;23.27;48.94
17785;BME280;9016;53.582;10.062;2023-07-20T12:18:37;101237.38;;;23.24;49.10
17785;BME280;9016;53.582;10.062;2023-07-20T12:21:07;101233.69;;;23.00;49.41
17785;BME280;9016;53.582;10.062;2023-07-20T12:23:37;101239.03;;;23.09;49.94
17785;BME280;9016;53.582;10.062;2023-07-20T12:26:09;101232.13;;;22.72;51.00
17785;BME280;9016;53.582;10.062;2023-07-20T12:28:40;101244.16;;;22.34;52.20
17785;BME280;9016;53.582;10.062;2023-07-20T12:31:09;101241.53;;;22.24;52.62
17785;BME280;9016;53.582;10.062;2023-07-20T12:33:40;101241.88;;;22.47;52.03
17785;BME280;9016;53.582;10.062;2023-07-20T12:36:09;101239.34;;;22.28;53.40
17785;BME280;9016;53.582;10.062;2023-07-20T12:38:39;101240.03;;;22.12;54.15
17785;BME280;9016;53.582;10.062;2023-07-20T12:41:10;101240.66;;;22.06;54.34
17785;BME280;9016;53.582;10.062;2023-07-20T12:43:40;101240.59;;;22.16;54.84
17785;BME280;9016;53.582;10.062;2023-07-20T12:46:09;101232.75;;;22.13;54.53
17785;BME280;9016;53.582;10.062;2023-07-20T12:48:38;101235.94;;;22.26;54.42
17785;BME280;9016;53.582;10.062;2023-07-20T12:51:09;101231.66;;;22.23;53.88
17785;BME280;9016;53.582;10.062;2023-07-20T12:53:38;101236.72;;;22.18;54.93
17785;BME280;9016;53.582;10.062;2023-07-20T12:56:06;101235.31;;;22.14;54.40
17785;BME280;9016;53.582;10.062;2023-07-20T12:58:40;101231.34;;;22.09;54.25
17785;BME280;9016;53.582;10.062;2023-07-20T13:01:08;101231.44;;;22.52;53.39
17785;BME280;9016;53.582;10.062;2023-07-20T13:03:37;101229.16;;;22.83;52.79